Sagittarian — WCY5210 — position and weather

sailwx.info

Track history (hours):
 
Tides and Currents Weather Stations Pressure Air Temp Water Temp Dewpoint Dewpoint Depression Visibility Wind Speed Wind Dir Waves Ship Positions

Sagittarian

Owner: TAURUS MARINE, SAN FRANCISCO, CA. More information available from US FCC via Universal Licensing System and Coast Guard Vessel Documentation Center.

Last reported at 2016-May-23 14:29 UTC. Time now 2016-May-25 01:22 UTC.
Position N 37°46' W 122°23'.

; draft 3 m.

Type: Towing. MMSI: 366969510.

Date/timePositionNaut miles runAvg speedWind from/ knotsBaromVisibWave heightAir tempDewpointWater temp
2016-May-23 14:29N 37°46' W 122°23'7 7.6
2016-May-23 13:33N 37°54' W 122°24'1 1.3
2016-May-23 12:33N 37°54' W 122°25'7 7.5
2016-May-23 11:33N 37°47' W 122°23'1 0.0
2016-May-21 22:10N 37°46' W 122°23'3 4.4
2016-May-21 21:33N 37°49' W 122°25'2 2.3
2016-May-21 20:33N 37°47' W 122°23'3 2.8
2016-May-21 19:33N 37°49' W 122°25'4 3.7
2016-May-21 18:33N 37°49' W 122°30'4 4.1
2016-May-21 17:33N 37°49' W 122°25'1 1.1
2016-May-21 16:33N 37°48' W 122°24'2 0.1
2016-May-20 15:29N 37°46' W 122°23'8 8.8
2016-May-20 14:33N 37°54' W 122°26'1 1.3
2016-May-20 13:34N 37°55' W 122°25'0 0.0
2016-May-20 12:34N 37°55' W 122°25'6 6.0
2016-May-20 11:34N 37°50' W 122°23'3 0.3
2016-May-19 23:33N 37°46' W 122°23'8 4.1
2016-May-19 21:33N 37°55' W 122°24'2 2.0
2016-May-19 20:33N 37°54' W 122°22'3 3.2
2016-May-19 19:33N 37°55' W 122°26'7 6.7
2016-May-19 18:32N 38°01' W 122°23'12 5.0
2016-May-19 16:13N 38°02' W 122°09'6 8.7
2016-May-19 15:33N 38°04' W 122°15'9 8.8
2016-May-19 14:29N 37°59' W 122°25'8 8.8
2016-May-19 13:33N 37°51' W 122°23'4 4.1
2016-May-19 12:33N 37°48' W 122°19'3 2.9
2016-May-19 11:33N 37°47' W 122°22'1 0.1
2016-May-19 01:32N 37°46' W 122°23'8 8.6
2016-May-19 00:33N 37°55' W 122°25'10 9.5
2016-May-18 23:32N 38°03' W 122°19'7 1.2
2016-May-18 17:33N 38°02' W 122°09'1 1.0
2016-May-18 16:33N 38°03' W 122°10'8 7.8
2016-May-18 15:33N 38°03' W 122°20'8 7.8
2016-May-18 14:34N 37°56' W 122°26'1 1.4
2016-May-18 13:33N 37°55' W 122°25'8 8.5
2016-May-18 12:33N 37°47' W 122°23'0 0.0
2016-May-17 20:33N 37°47' W 122°23'9 9.0
2016-May-17 19:34N 37°55' W 122°25'4 3.3
2016-May-17 18:12N 37°60' W 122°24'10 3.8
2016-May-17 15:33N 38°04' W 122°13'3 0.2
2016-May-16 21:23N 38°02' W 122°09'4 0.8
2016-May-16 17:10N 38°04' W 122°13'7 8.9
2016-May-16 16:20N 38°02' W 122°22'6 7.8
2016-May-16 15:33N 37°56' W 122°26'1 1.3
2016-May-16 14:33N 37°55' W 122°25'9 9.0
2016-May-16 13:33N 37°47' W 122°23'0 0.0
2016-May-15 23:33N 37°46' W 122°23'8 7.9
2016-May-15 22:33N 37°54' W 122°23'1 0.8
2016-May-15 21:33N 37°54' W 122°24'7 7.4
2016-May-15 20:33N 37°46' W 122°23'0 0.1
2016-May-15 19:33N 37°46' W 122°23'9 6.3
2016-May-15 18:07N 37°55' W 122°25'1 2.4
2016-May-15 17:33N 37°54' W 122°26'0 0.0
2016-May-15 16:30N 37°54' W 122°26'7 7.3
2016-May-15 15:33N 37°48' W 122°23'2 0.1
2016-May-15 03:33N 37°49' W 122°25'5 4.8
2016-May-15 02:33N 37°49' W 122°31'4 4.1
2016-May-15 01:33N 37°50' W 122°26'4 4.3
2016-May-15 00:33N 37°54' W 122°26'3 3.2
2016-May-14 23:31N 37°55' W 122°22'0 0.2
2016-May-14 22:33N 37°55' W 122°22'7 6.6
2016-May-14 21:33N 37°48' W 122°23'2 0.1
2016-May-14 06:33N 37°46' W 122°23'6 6.3
2016-May-14 05:33N 37°49' W 122°30'4 3.6
2016-May-14 04:33N 37°50' W 122°26'5 4.8
2016-May-14 03:32N 37°55' W 122°26'1 1.4
2016-May-14 02:33N 37°54' W 122°24'8 0.9
2016-May-13 17:33N 37°46' W 122°23'0 0.0
2016-May-13 16:33N 37°46' W 122°23'0 0.0
2016-May-13 15:33N 37°46' W 122°23'0 0.0
2016-May-13 14:33N 37°46' W 122°23'  
Track history (hours):
 
Tides and Currents Weather Stations Pressure Air Temp Water Temp Dewpoint Dewpoint Depression Visibility Wind Speed Wind Dir Waves Ship Positions

Sagittarian

Owner: TAURUS MARINE, SAN FRANCISCO, CA. More information available from US FCC via Universal Licensing System and Coast Guard Vessel Documentation Center.

Last reported at 2016-May-23 14:29 UTC. Time now 2016-May-25 01:22 UTC.
Position N 37°46' W 122°23'.

; draft 3 m.

Type: Towing. MMSI: 366969510.

Date/timePositionNaut miles runAvg speedWind from/ knotsBaromVisibWave heightAir tempDewpointWater temp
2016-May-23 14:29N 37°46' W 122°23'7 7.6
2016-May-23 13:33N 37°54' W 122°24'1 1.3
2016-May-23 12:33N 37°54' W 122°25'7 7.5
2016-May-23 11:33N 37°47' W 122°23'1 0.0
2016-May-21 22:10N 37°46' W 122°23'3 4.4
2016-May-21 21:33N 37°49' W 122°25'2 2.3
2016-May-21 20:33N 37°47' W 122°23'3 2.8
2016-May-21 19:33N 37°49' W 122°25'4 3.7
2016-May-21 18:33N 37°49' W 122°30'4 4.1
2016-May-21 17:33N 37°49' W 122°25'1 1.1
2016-May-21 16:33N 37°48' W 122°24'2 0.1
2016-May-20 15:29N 37°46' W 122°23'8 8.8
2016-May-20 14:33N 37°54' W 122°26'1 1.3
2016-May-20 13:34N 37°55' W 122°25'0 0.0
2016-May-20 12:34N 37°55' W 122°25'6 6.0
2016-May-20 11:34N 37°50' W 122°23'3 0.3
2016-May-19 23:33N 37°46' W 122°23'8 4.1
2016-May-19 21:33N 37°55' W 122°24'2 2.0
2016-May-19 20:33N 37°54' W 122°22'3 3.2
2016-May-19 19:33N 37°55' W 122°26'7 6.7
2016-May-19 18:32N 38°01' W 122°23'12 5.0
2016-May-19 16:13N 38°02' W 122°09'6 8.7
2016-May-19 15:33N 38°04' W 122°15'9 8.8
2016-May-19 14:29N 37°59' W 122°25'8 8.8
2016-May-19 13:33N 37°51' W 122°23'4 4.1
2016-May-19 12:33N 37°48' W 122°19'3 2.9
2016-May-19 11:33N 37°47' W 122°22'1 0.1
2016-May-19 01:32N 37°46' W 122°23'8 8.6
2016-May-19 00:33N 37°55' W 122°25'10 9.5
2016-May-18 23:32N 38°03' W 122°19'7 1.2
2016-May-18 17:33N 38°02' W 122°09'1 1.0
2016-May-18 16:33N 38°03' W 122°10'8 7.8
2016-May-18 15:33N 38°03' W 122°20'8 7.8
2016-May-18 14:34N 37°56' W 122°26'1 1.4
2016-May-18 13:33N 37°55' W 122°25'8 8.5
2016-May-18 12:33N 37°47' W 122°23'0 0.0
2016-May-17 20:33N 37°47' W 122°23'9 9.0
2016-May-17 19:34N 37°55' W 122°25'4 3.3
2016-May-17 18:12N 37°60' W 122°24'10 3.8
2016-May-17 15:33N 38°04' W 122°13'3 0.2
2016-May-16 21:23N 38°02' W 122°09'4 0.8
2016-May-16 17:10N 38°04' W 122°13'7 8.9
2016-May-16 16:20N 38°02' W 122°22'6 7.8
2016-May-16 15:33N 37°56' W 122°26'1 1.3
2016-May-16 14:33N 37°55' W 122°25'9 9.0
2016-May-16 13:33N 37°47' W 122°23'0 0.0
2016-May-15 23:33N 37°46' W 122°23'8 7.9
2016-May-15 22:33N 37°54' W 122°23'1 0.8
2016-May-15 21:33N 37°54' W 122°24'7 7.4
2016-May-15 20:33N 37°46' W 122°23'0 0.1
2016-May-15 19:33N 37°46' W 122°23'9 6.3
2016-May-15 18:07N 37°55' W 122°25'1 2.4
2016-May-15 17:33N 37°54' W 122°26'0 0.0
2016-May-15 16:30N 37°54' W 122°26'7 7.3
2016-May-15 15:33N 37°48' W 122°23'2 0.1
2016-May-15 03:33N 37°49' W 122°25'5 4.8
2016-May-15 02:33N 37°49' W 122°31'4 4.1
2016-May-15 01:33N 37°50' W 122°26'4 4.3
2016-May-15 00:33N 37°54' W 122°26'3 3.2
2016-May-14 23:31N 37°55' W 122°22'0 0.2
2016-May-14 22:33N 37°55' W 122°22'7 6.6
2016-May-14 21:33N 37°48' W 122°23'2 0.1
2016-May-14 06:33N 37°46' W 122°23'6 6.3
2016-May-14 05:33N 37°49' W 122°30'4 3.6
2016-May-14 04:33N 37°50' W 122°26'5 4.8
2016-May-14 03:32N 37°55' W 122°26'1 1.4
2016-May-14 02:33N 37°54' W 122°24'8 0.9
2016-May-13 17:33N 37°46' W 122°23'0 0.0
2016-May-13 16:33N 37°46' W 122°23'0 0.0
2016-May-13 15:33N 37°46' W 122°23'0 0.0
2016-May-13 14:33N 37°46' W 122°23'  

Dump ship's entire track history